Time,TemperatureF,DewpointF,PressureIn,WindDirection,WindDirectionDegrees,WindSpeedMPH,WindSpeedGustMPH,Humidity,HourlyPrecipIn,Conditions,Clouds,dailyrainin,SoftwareType,DateUTC
2013-09-23 00:14:00,74.0,72.0,29.87,ESE,115,2.0,3.0,92,-99.99,,,-99.99,,2013-09-23 04:14:00,
2013-09-23 00:54:00,74.0,72.0,29.88,WNW,303,1.0,2.0,92,-99.99,,,-99.99,,2013-09-23 04:54:00,
2013-09-23 01:12:00,74.0,71.0,29.88,South,186,1.0,2.0,92,-99.99,,,-99.99,,2013-09-23 05:12:00,
2013-09-23 01:53:00,73.0,71.0,29.87,SE,125,3.0,4.0,92,-99.99,,,-99.99,,2013-09-23 05:53:00,
2013-09-23 02:13:00,73.0,71.0,29.87,SE,124,3.0,4.0,92,-99.99,,,-99.99,,2013-09-23 06:13:00,
2013-09-23 02:22:00,73.0,71.0,29.87,ESE,102,3.0,4.0,92,-99.99,,,-99.99,,2013-09-23 06:22:00,
2013-09-23 02:32:00,73.0,71.0,29.87,ESE,102,3.0,4.0,92,-99.99,,,-99.99,,2013-09-23 06:32:00,
2013-09-23 02:52:00,74.0,71.0,29.87,ESE,116,2.0,3.0,92,-99.99,,,-99.99,,2013-09-23 06:52:00,
2013-09-23 03:12:00,73.0,71.0,29.87,ESE,113,2.0,3.0,92,-99.99,,,-99.99,,2013-09-23 07:12:00,
2013-09-23 03:52:00,74.0,71.0,29.87,SE,128,1.0,2.0,93,-99.99,,,-99.99,,2013-09-23 07:52:00,
2013-09-23 04:11:00,74.0,72.0,29.86,ESE,112,1.0,2.0,93,-99.99,,,-99.99,,2013-09-23 08:11:00,
2013-09-23 04:23:00,74.0,72.0,29.86,ENE,66,2.0,2.0,93,-99.99,,,-99.99,,2013-09-23 08:23:00,
2013-09-23 04:32:00,74.0,72.0,29.86,ENE,66,2.0,2.0,93,-99.99,,,-99.99,,2013-09-23 08:32:00,
2013-09-23 04:52:00,74.0,71.0,29.86,SSE,157,1.0,2.0,93,-99.99,,,-99.99,,2013-09-23 08:52:00,
2013-09-23 05:11:00,73.0,71.0,29.86,SSE,157,3.0,4.0,93,-99.99,,,-99.99,,2013-09-23 09:11:00,
2013-09-23 05:53:00,73.0,71.0,29.87,SSE,149,4.0,5.0,93,-99.99,,,-99.99,,2013-09-23 09:53:00,
2013-09-23 06:13:00,73.0,71.0,29.88,SE,142,3.0,4.0,93,-99.99,,,-99.99,,2013-09-23 10:13:00,
2013-09-23 06:53:00,73.0,71.0,29.89,SE,131,2.0,3.0,93,-99.99,,,-99.99,,2013-09-23 10:53:00,
2013-09-23 07:12:00,73.0,71.0,29.89,ESE,113,2.0,2.0,93,-99.99,,,-99.99,,2013-09-23 11:12:00,
2013-09-23 07:52:00,72.0,70.0,29.91,SE,143,2.0,2.0,93,-99.99,,,-99.99,,2013-09-23 11:52:00,
2013-09-23 08:11:00,72.0,70.0,29.91,East,88,2.0,2.0,93,-99.99,,,-99.99,,2013-09-23 12:11:00,
2013-09-23 08:52:00,74.0,72.0,29.91,ENE,62,3.0,4.0,93,-99.99,,,-99.99,,2013-09-23 12:52:00,
2013-09-23 09:11:00,75.0,73.0,29.91,ESE,111,3.0,4.0,93,-99.99,,,-99.99,,2013-09-23 13:11:00,
2013-09-23 09:52:00,77.0,75.0,29.93,SE,140,4.0,6.0,91,-99.99,,,-99.99,,2013-09-23 13:52:00,
2013-09-23 10:12:00,78.0,75.0,29.94,SSE,149,5.0,7.0,90,-99.99,,,-99.99,,2013-09-23 14:12:00,
2013-09-23 10:52:00,82.0,75.0,29.95,SE,133,5.0,8.0,80,-99.99,,,-99.99,,2013-09-23 14:52:00,
2013-09-23 11:00:00,84.0,74.0,29.95,SE,125,7.0,10.0,72,-99.99,,,-99.99,,2013-09-23 15:00:00,
2013-09-23 11:12:00,83.0,75.0,29.95,SE,126,6.0,9.0,76,-99.99,,,-99.99,,2013-09-23 15:12:00,
2013-09-23 11:22:00,83.0,75.0,29.95,SE,125,6.0,10.0,74,-99.99,,,-99.99,,2013-09-23 15:22:00,
2013-09-23 11:43:00,84.0,74.0,29.95,SE,125,7.0,10.0,72,-99.99,,,-99.99,,2013-09-23 15:43:00,
2013-09-23 11:54:00,84.0,74.0,29.95,SE,125,7.0,10.0,72,-99.99,,,-99.99,,2013-09-23 15:54:00,
2013-09-23 12:24:00,84.0,74.0,29.95,SE,125,7.0,10.0,72,-99.99,,,-99.99,,2013-09-23 16:24:00,
2013-09-23 12:33:00,84.0,74.0,29.95,SE,125,7.0,10.0,72,-99.99,,,-99.99,,2013-09-23 16:33:00,
2013-09-23 12:43:00,84.0,74.0,29.95,SE,125,7.0,10.0,72,-99.99,,,-99.99,,2013-09-23 16:43:00,
2013-09-23 12:53:00,84.0,74.0,29.95,SE,125,7.0,10.0,72,-99.99,,,-99.99,,2013-09-23 16:53:00,
2013-09-23 14:13:00,82.0,74.0,29.93,SE,126,3.0,5.0,78,-99.99,,,-99.99,,2013-09-23 18:13:00,
2013-09-23 14:22:00,81.0,75.0,29.93,South,174,2.0,3.0,81,-99.99,,,-99.99,,2013-09-23 18:22:00,
2013-09-23 14:52:00,78.0,73.0,29.94,South,187,7.0,13.0,86,-99.99,,,-99.99,,2013-09-23 18:52:00,
2013-09-23 15:53:00,76.0,73.0,29.94,SSE,152,4.0,7.0,90,-99.99,,,-99.99,,2013-09-23 19:53:00,
2013-09-23 16:52:00,76.0,73.0,29.94,East,85,3.0,4.0,91,-99.99,,,-99.99,,2013-09-23 20:52:00,
2013-09-23 17:23:00,75.0,73.0,29.94,SE,127,4.0,6.0,91,-99.99,,,-99.99,,2013-09-23 21:23:00,
2013-09-23 17:44:00,75.0,72.0,29.94,SE,141,3.0,5.0,91,-99.99,,,-99.99,,2013-09-23 21:44:00,
2013-09-23 17:54:00,75.0,72.0,29.94,ESE,103,4.0,6.0,92,-99.99,,,-99.99,,2013-09-23 21:54:00,
2013-09-23 18:04:00,75.0,72.0,29.94,ESE,103,4.0,6.0,92,-99.99,,,-99.99,,2013-09-23 22:04:00,
2013-09-23 18:24:00,75.0,73.0,29.94,ENE,78,3.0,4.0,92,-99.99,,,-99.99,,2013-09-23 22:24:00,
2013-09-23 18:33:00,75.0,73.0,29.94,ENE,78,3.0,4.0,92,-99.99,,,-99.99,,2013-09-23 22:33:00,
2013-09-23 19:22:00,75.0,72.0,29.96,SE,143,4.0,7.0,92,-99.99,,,-99.99,,2013-09-23 23:22:00,
2013-09-23 19:54:00,75.0,72.0,29.97,ESE,122,3.0,6.0,92,-99.99,,,-99.99,,2013-09-23 23:54:00,
2013-09-23 20:12:00,74.0,72.0,29.97,East,98,3.0,6.0,92,-99.99,,,-99.99,,2013-09-24 00:12:00,
2013-09-23 20:22:00,74.0,72.0,29.97,ENE,64,5.0,8.0,92,-99.99,,,-99.99,,2013-09-24 00:22:00,
2013-09-23 20:32:00,74.0,72.0,29.97,ENE,64,5.0,8.0,92,-99.99,,,-99.99,,2013-09-24 00:32:00,
2013-09-23 20:52:00,74.0,72.0,29.97,East,98,6.0,10.0,92,-99.99,,,-99.99,,2013-09-24 00:52:00,
2013-09-23 21:12:00,74.0,72.0,29.96,ESE,109,7.0,10.0,92,-99.99,,,-99.99,,2013-09-24 01:12:00,
2013-09-23 21:22:00,74.0,72.0,29.96,ESE,118,9.0,15.0,92,-99.99,,,-99.99,,2013-09-24 01:22:00,
2013-09-23 21:32:00,74.0,72.0,29.96,ESE,118,9.0,15.0,92,-99.99,,,-99.99,,2013-09-24 01:32:00,
2013-09-23 21:52:00,74.0,71.0,29.96,ESE,112,10.0,15.0,91,-99.99,,,-99.99,,2013-09-24 01:52:00,
2013-09-23 22:42:00,74.0,71.0,29.97,ESE,112,6.0,8.0,91,-99.99,,,-99.99,,2013-09-24 02:42:00,
2013-09-23 22:52:00,74.0,71.0,29.97,ESE,111,7.0,10.0,91,-99.99,,,-99.99,,2013-09-24 02:52:00,
2013-09-23 23:12:00,74.0,71.0,29.98,ESE,114,6.0,9.0,91,-99.99,,,-99.99,,2013-09-24 03:12:00,
2013-09-23 23:55:00,74.0,72.0,29.97,SE,124,6.0,10.0,92,-99.99,,,-99.99,,2013-09-24 03:55:00,